Terminal Aerodrome Forecast
Issued by NWS

Home | Current Version | Previous Version | Text Only | Print | Product List | Glossary On
Versions: 1 2 3 4 5 6 7 8 9 10 11 12 13 14 15 16 17 18 19 20 21 22 23
000
FTUS43 KLSX 200537
TAFSUS
TAF
KSUS 200537Z 2006/2106 19012G21KT P6SM -SHRA OVC050
     FM201500 19014G24KT 6SM -SHRA OVC025
     FM202200 23013KT 4SM -SHRA OVC015
     FM210200 30014G22KT 3SM -SHRA OVC008=

USA.gov is the U.S. government's official web portal to all federal, state and local government web resources and services.